Time;durP1;ratioP1;P1;durP2;ratioP2;P2;SDS_P1;SDS_P2;PMS_P1;PMS_P2;Temp;Humidity;BMP_temperature;BMP_pressure;BME280_temperature;BME280_humidity;BME280_pressure;Samples;Min_cycle;Max_cycle;Signal;HPM_P1;HPM_P2
2022/03/21 00:00:21;;;;;;;15.70;10.18;;;;;;;;;;5052746;28;20543;-77
2022/03/21 00:02:48;;;;;;;40.47;23.92;;;;;;;;;;5052493;28;20033;-78
2022/03/21 00:05:14;;;;;;;13.88;9.82;;;;;;;;;;5051636;28;20219;-77
2022/03/21 00:07:40;;;;;;;20.83;13.02;;;;;;;;;;5052055;28;20033;-77
2022/03/21 00:10:06;;;;;;;26.42;18.45;;;;;;;;;;5051790;28;20031;-78
2022/03/21 00:12:35;;;;;;;43.55;24.40;;;;;;;;;;5051779;28;20476;-78
2022/03/21 00:15:02;;;;;;;29.83;17.42;;;;;;;;;;5051769;28;20025;-77
2022/03/21 00:17:31;;;;;;;33.10;20.30;;;;;;;;;;5051520;28;20431;-78
2022/03/21 00:19:58;;;;;;;21.75;12.73;;;;;;;;;;5051934;28;20021;-77
2022/03/21 00:22:24;;;;;;;20.90;14.00;;;;;;;;;;5051240;28;20033;-77
2022/03/21 00:24:50;;;;;;;20.92;13.15;;;;;;;;;;5051764;28;20026;-78
2022/03/21 00:27:16;;;;;;;24.83;16.58;;;;;;;;;;5051356;28;20464;-78
2022/03/21 00:29:42;;;;;;;20.88;14.40;;;;;;;;;;5050534;28;20392;-78
2022/03/21 00:32:08;;;;;;;17.63;11.02;;;;;;;;;;5050238;28;20021;-78
2022/03/21 00:34:35;;;;;;;18.25;11.57;;;;;;;;;;5051591;28;20026;-78
2022/03/21 00:37:01;;;;;;;17.50;11.30;;;;;;;;;;5051622;28;20032;-78
2022/03/21 00:39:27;;;;;;;16.67;10.63;;;;;;;;;;5051181;28;20384;-78
2022/03/21 00:41:53;;;;;;;25.58;15.20;;;;;;;;;;5051487;28;20036;-77
2022/03/21 00:44:19;;;;;;;18.60;11.57;;;;;;;;;;5054140;28;20032;-77
2022/03/21 00:46:46;;;;;;;12.02;6.85;;;;;;;;;;5055318;28;20049;-77
2022/03/21 00:49:13;;;;;;;12.70;7.85;;;;;;;;;;5055323;28;20064;-77
2022/03/21 00:51:41;;;;;;;11.23;7.05;;;;;;;;;;5055247;28;20025;-78
2022/03/21 00:54:07;;;;;;;13.35;7.63;;;;;;;;;;5054899;28;20048;-77
2022/03/21 00:56:33;;;;;;;13.75;8.15;;;;;;;;;;5054936;28;20048;-78
2022/03/21 00:59:00;;;;;;;12.57;8.55;;;;;;;;;;5055262;28;20029;-78
2022/03/21 01:01:26;;;;;;;12.95;7.80;;;;;;;;;;5054497;28;20476;-77
2022/03/21 01:03:52;;;;;;;13.25;7.25;;;;;;;;;;5055025;28;20086;-77
2022/03/21 01:06:18;;;;;;;12.50;7.57;;;;;;;;;;5054872;28;20052;-78
2022/03/21 01:08:44;;;;;;;11.65;6.55;;;;;;;;;;5055103;28;20451;-77
2022/03/21 01:11:10;;;;;;;12.23;6.53;;;;;;;;;;5055873;28;20085;-77
2022/03/21 01:13:41;;;;;;;10.77;6.15;;;;;;;;;;5055644;28;20048;-77
2022/03/21 01:16:07;;;;;;;9.15;6.20;;;;;;;;;;5054714;28;20048;-77
2022/03/21 01:18:34;;;;;;;9.05;5.65;;;;;;;;;;5054501;28;20025;-77
2022/03/21 01:21:00;;;;;;;10.15;6.15;;;;;;;;;;5054597;28;20128;-77
2022/03/21 01:23:26;;;;;;;8.07;5.53;;;;;;;;;;5054318;28;20044;-77
2022/03/21 01:25:53;;;;;;;9.07;6.05;;;;;;;;;;5054720;28;20100;-76
2022/03/21 01:28:19;;;;;;;10.13;6.30;;;;;;;;;;5054586;28;20032;-77
2022/03/21 01:30:45;;;;;;;11.38;6.65;;;;;;;;;;5054452;28;20062;-77
2022/03/21 01:33:11;;;;;;;11.18;6.57;;;;;;;;;;5054527;28;20029;-77
2022/03/21 01:35:37;;;;;;;10.02;6.45;;;;;;;;;;5054279;28;20033;-77
2022/03/21 01:38:03;;;;;;;12.88;7.88;;;;;;;;;;5054526;28;20026;-77
2022/03/21 01:40:30;;;;;;;12.05;7.70;;;;;;;;;;5052998;28;20024;-77
2022/03/21 01:42:56;;;;;;;11.98;6.93;;;;;;;;;;5054301;28;20392;-77
2022/03/21 01:45:26;;;;;;;9.50;5.88;;;;;;;;;;5054276;28;20028;-77
2022/03/21 01:47:52;;;;;;;10.30;5.95;;;;;;;;;;5054320;28;20032;-76
2022/03/21 01:50:18;;;;;;;10.10;5.82;;;;;;;;;;5054225;28;20464;-77
2022/03/21 01:52:44;;;;;;;10.30;6.82;;;;;;;;;;5053884;28;20055;-77
2022/03/21 01:57:59;;;;;;;10.75;6.88;;;;;;;;;;5054025;28;20087;-77
2022/03/21 02:00:25;;;;;;;11.32;6.72;;;;;;;;;;5052375;28;20029;-77
2022/03/21 02:02:51;;;;;;;14.85;8.13;;;;;;;;;;5053494;28;20052;-77
2022/03/21 02:05:18;;;;;;;14.00;8.40;;;;;;;;;;5052163;28;20029;-77
2022/03/21 02:07:45;;;;;;;13.45;7.78;;;;;;;;;;5053760;28;20036;-77
2022/03/21 02:10:11;;;;;;;13.15;8.25;;;;;;;;;;5053578;28;20074;-77
2022/03/21 02:12:37;;;;;;;13.18;7.95;;;;;;;;;;5053482;28;20029;-77
2022/03/21 02:15:04;;;;;;;12.05;8.40;;;;;;;;;;5052395;28;20047;-77
2022/03/21 02:17:31;;;;;;;14.00;8.07;;;;;;;;;;5053264;28;20021;-77
2022/03/21 02:20:01;;;;;;;14.25;8.23;;;;;;;;;;5053540;28;20033;-77
2022/03/21 02:22:33;;;;;;;11.00;6.90;;;;;;;;;;5052895;28;20519;-77
2022/03/21 02:24:59;;;;;;;10.88;6.97;;;;;;;;;;5053611;28;20025;-77
2022/03/21 02:27:26;;;;;;;15.38;8.93;;;;;;;;;;5053071;28;20388;-77
2022/03/21 02:29:53;;;;;;;17.75;9.48;;;;;;;;;;5053498;28;20025;-77
2022/03/21 02:32:19;;;;;;;19.60;8.77;;;;;;;;;;5052955;28;20408;-77
2022/03/21 02:34:45;;;;;;;17.70;8.48;;;;;;;;;;5053586;28;20039;-77
2022/03/21 02:37:14;;;;;;;15.80;8.43;;;;;;;;;;5053017;28;20424;-77
2022/03/21 02:39:42;;;;;;;15.57;8.00;;;;;;;;;;5053309;28;20087;-77
2022/03/21 02:42:09;;;;;;;12.02;7.53;;;;;;;;;;5052915;28;20060;-77
2022/03/21 02:44:35;;;;;;;12.43;8.00;;;;;;;;;;5052840;28;20102;-77
2022/03/21 02:47:02;;;;;;;13.80;8.05;;;;;;;;;;5053156;28;20381;-77
2022/03/21 02:49:28;;;;;;;11.43;7.57;;;;;;;;;;5052654;28;20025;-77
2022/03/21 02:51:55;;;;;;;11.38;7.53;;;;;;;;;;5052942;28;20485;-77
2022/03/21 02:54:22;;;;;;;12.50;7.18;;;;;;;;;;5052034;28;20049;-77
2022/03/21 02:56:49;;;;;;;12.93;8.25;;;;;;;;;;5052842;28;20037;-77
2022/03/21 02:59:16;;;;;;;9.38;6.53;;;;;;;;;;5052849;28;20033;-77
2022/03/21 03:01:43;;;;;;;11.90;6.68;;;;;;;;;;5052687;28;20441;-77
2022/03/21 03:04:09;;;;;;;9.27;6.78;;;;;;;;;;5052688;28;20124;-77
2022/03/21 03:06:39;;;;;;;12.38;6.40;;;;;;;;;;5051689;28;20064;-77
2022/03/21 03:09:07;;;;;;;10.32;6.80;;;;;;;;;;5052577;28;20473;-77
2022/03/21 03:11:33;;;;;;;9.93;6.63;;;;;;;;;;5052297;28;20053;-77
2022/03/21 03:13:59;;;;;;;10.30;6.38;;;;;;;;;;5052439;28;20024;-77
2022/03/21 03:16:25;;;;;;;8.90;6.22;;;;;;;;;;5052169;28;20388;-77
2022/03/21 03:18:51;;;;;;;11.57;6.10;;;;;;;;;;5052395;28;20029;-76
2022/03/21 03:21:20;;;;;;;10.38;6.75;;;;;;;;;;5052375;28;20025;-77
2022/03/21 03:23:47;;;;;;;15.88;7.88;;;;;;;;;;5052368;28;20380;-77
2022/03/21 03:26:13;;;;;;;13.00;7.65;;;;;;;;;;5052505;28;20388;-77
2022/03/21 03:28:39;;;;;;;10.90;7.80;;;;;;;;;;5052175;28;20025;-77
2022/03/21 03:31:06;;;;;;;10.77;7.65;;;;;;;;;;5052357;28;20170;-77
2022/03/21 03:33:32;;;;;;;18.67;10.55;;;;;;;;;;5051835;28;20419;-77
2022/03/21 03:35:58;;;;;;;23.40;11.50;;;;;;;;;;5052318;28;20033;-77
2022/03/21 03:38:24;;;;;;;20.08;10.93;;;;;;;;;;5051832;28;20033;-77
2022/03/21 03:40:50;;;;;;;19.80;10.23;;;;;;;;;;5052255;28;20029;-77
2022/03/21 03:43:16;;;;;;;16.30;9.98;;;;;;;;;;5052058;28;20033;-77
2022/03/21 03:45:43;;;;;;;14.57;8.25;;;;;;;;;;5052128;28;20029;-78
2022/03/21 03:48:10;;;;;;;13.52;7.60;;;;;;;;;;5052359;28;20056;-77
2022/03/21 03:50:36;;;;;;;12.50;7.63;;;;;;;;;;5051791;28;20108;-77
2022/03/21 03:53:02;;;;;;;11.82;7.20;;;;;;;;;;5051994;28;20053;-77
2022/03/21 03:55:28;;;;;;;12.60;7.53;;;;;;;;;;5051656;28;20104;-77
2022/03/21 03:57:54;;;;;;;15.25;9.43;;;;;;;;;;5052150;28;20037;-77
2022/03/21 04:00:21;;;;;;;13.07;8.98;;;;;;;;;;5051991;28;20036;-77
2022/03/21 04:05:35;;;;;;;12.70;6.88;;;;;;;;;;5051829;28;20188;-77
2022/03/21 04:08:02;;;;;;;11.55;8.02;;;;;;;;;;5052044;28;20036;-77
2022/03/21 04:10:28;;;;;;;14.70;8.27;;;;;;;;;;5051608;28;20503;-78
2022/03/21 04:12:54;;;;;;;11.45;7.38;;;;;;;;;;5052008;28;20059;-77
2022/03/21 04:15:24;;;;;;;12.05;7.47;;;;;;;;;;5051564;28;20029;-77
2022/03/21 04:17:51;;;;;;;9.57;6.47;;;;;;;;;;5054417;28;20025;-78
2022/03/21 04:20:17;;;;;;;10.98;8.00;;;;;;;;;;5055818;28;20388;-78
2022/03/21 04:22:43;;;;;;;10.80;7.38;;;;;;;;;;5055824;28;20035;-78
2022/03/21 04:25:10;;;;;;;12.63;8.48;;;;;;;;;;5054669;28;20029;-77
2022/03/21 04:27:37;;;;;;;11.70;7.30;;;;;;;;;;5055755;28;20384;-78
2022/03/21 04:30:03;;;;;;;12.85;7.75;;;;;;;;;;5055813;28;20079;-77
2022/03/21 04:32:30;;;;;;;12.70;7.82;;;;;;;;;;5055399;28;20392;-78
2022/03/21 04:34:56;;;;;;;12.70;8.15;;;;;;;;;;5055859;28;20036;-78
2022/03/21 04:37:22;;;;;;;11.73;7.65;;;;;;;;;;5057825;28;20025;-78
2022/03/21 04:39:48;;;;;;;14.70;8.77;;;;;;;;;;5055762;28;20041;-77
2022/03/21 04:42:15;;;;;;;11.43;7.38;;;;;;;;;;5055498;28;20039;-77
2022/03/21 04:44:41;;;;;;;15.52;8.13;;;;;;;;;;5054059;28;20029;-77
2022/03/21 04:47:08;;;;;;;16.38;10.13;;;;;;;;;;5055325;28;20029;-77
2022/03/21 04:49:34;;;;;;;32.35;17.40;;;;;;;;;;5055053;28;20063;-77
2022/03/21 04:52:00;;;;;;;50.55;27.83;;;;;;;;;;5054241;28;20435;-77
2022/03/21 04:54:28;;;;;;;16.42;11.35;;;;;;;;;;5054619;28;20075;-77
2022/03/21 04:56:54;;;;;;;17.08;10.10;;;;;;;;;;5054934;28;20047;-78
2022/03/21 04:59:21;;;;;;;19.65;11.77;;;;;;;;;;5055088;28;20108;-77
2022/03/21 05:01:47;;;;;;;21.05;12.35;;;;;;;;;;5053723;28;20395;-77
2022/03/21 05:04:13;;;;;;;24.58;11.70;;;;;;;;;;5055194;28;20033;-77
2022/03/21 05:06:39;;;;;;;20.25;11.35;;;;;;;;;;5054870;28;20025;-79
2022/03/21 05:09:06;;;;;;;18.25;9.93;;;;;;;;;;5055315;28;20021;-76
2022/03/21 05:11:32;;;;;;;18.45;11.88;;;;;;;;;;5054767;28;20028;-79
2022/03/21 05:13:58;;;;;;;17.83;10.25;;;;;;;;;;5054860;28;20412;-76
2022/03/21 05:16:24;;;;;;;16.77;10.55;;;;;;;;;;5054759;28;20047;-77
2022/03/21 05:18:50;;;;;;;23.98;12.70;;;;;;;;;;5054819;28;20029;-77
2022/03/21 05:21:17;;;;;;;24.08;14.77;;;;;;;;;;5054982;28;20029;-79
2022/03/21 05:31:57;;;;;;;23.65;12.48;;;;;;;;;;5034199;28;19959;-77
2022/03/21 05:37:08;;;;;;;26.10;17.92;;;;;;;;;;5034399;28;20052;-77
2022/03/21 05:40:31;;;;;;;28.27;17.45;;;;;;;;;;5032677;28;20099;-77
2022/03/21 05:42:21;;;;;;;28.45;19.02;;;;;;;;;;5033921;28;20401;-75
2022/03/21 05:44:47;;;;;;;23.58;15.63;;;;;;;;;;5034330;28;20033;-75
2022/03/21 05:47:13;;;;;;;20.80;14.40;;;;;;;;;;5034220;28;20366;-75
2022/03/21 05:49:39;;;;;;;30.42;16.92;;;;;;;;;;5033900;28;20155;-76
2022/03/21 05:52:05;;;;;;;20.65;13.43;;;;;;;;;;5032561;28;20492;-76
2022/03/21 05:54:31;;;;;;;20.52;12.35;;;;;;;;;;5032634;28;20025;-76
2022/03/21 05:56:57;;;;;;;20.63;12.40;;;;;;;;;;5033939;28;20446;-76
2022/03/21 06:02:08;;;;;;;28.15;16.48;;;;;;;;;;5033914;28;20039;-76
2022/03/21 06:04:34;;;;;;;22.23;15.90;;;;;;;;;;5033700;28;20064;-76
2022/03/21 06:07:01;;;;;;;22.13;14.30;;;;;;;;;;5033707;28;20030;-76
2022/03/21 06:09:27;;;;;;;32.45;18.92;;;;;;;;;;5033240;28;20025;-76
2022/03/21 06:11:53;;;;;;;29.63;19.17;;;;;;;;;;5035583;28;20052;-76
2022/03/21 06:14:20;;;;;;;29.92;18.00;;;;;;;;;;5033283;28;20124;-76
2022/03/21 06:16:46;;;;;;;36.33;19.95;;;;;;;;;;5033478;28;20096;-77
2022/03/21 06:19:13;;;;;;;28.75;17.70;;;;;;;;;;5031676;28;20116;-76
2022/03/21 06:21:39;;;;;;;16.77;10.38;;;;;;;;;;5032874;28;20473;-76
2022/03/21 06:24:05;;;;;;;14.90;10.63;;;;;;;;;;5033328;28;20138;-76
2022/03/21 06:26:31;;;;;;;20.38;11.68;;;;;;;;;;5032694;28;20025;-77
2022/03/21 06:28:58;;;;;;;16.15;10.45;;;;;;;;;;5033113;28;20088;-77
2022/03/21 06:31:24;;;;;;;18.33;11.48;;;;;;;;;;5041758;28;20086;-76
2022/03/21 06:33:50;;;;;;;16.95;9.48;;;;;;;;;;5052095;28;20063;-75
2022/03/21 06:36:17;;;;;;;16.15;10.40;;;;;;;;;;5050686;28;20104;-77
2022/03/21 06:38:43;;;;;;;16.17;9.80;;;;;;;;;;5050862;28;20158;-78
2022/03/21 06:41:10;;;;;;;18.35;11.32;;;;;;;;;;5048136;28;20032;-78
2022/03/21 06:43:36;;;;;;;15.52;9.50;;;;;;;;;;5040385;28;20041;-80
2022/03/21 06:46:02;;;;;;;17.98;10.80;;;;;;;;;;5041748;28;20025;-79
2022/03/21 06:48:28;;;;;;;15.55;11.07;;;;;;;;;;5045230;28;20365;-78
2022/03/21 06:50:55;;;;;;;13.00;9.63;;;;;;;;;;5052778;28;20090;-75
2022/03/21 06:53:21;;;;;;;15.00;9.98;;;;;;;;;;5049827;28;20057;-78
2022/03/21 06:55:48;;;;;;;16.02;9.82;;;;;;;;;;5049507;28;20028;-78
2022/03/21 06:58:14;;;;;;;16.33;9.75;;;;;;;;;;5051361;28;20496;-78
2022/03/21 07:00:45;;;;;;;15.75;10.50;;;;;;;;;;5051022;28;20423;-77
2022/03/21 07:03:11;;;;;;;15.13;9.75;;;;;;;;;;5051470;28;20503;-77
2022/03/21 07:05:38;;;;;;;18.80;10.30;;;;;;;;;;5051761;28;20036;-78
2022/03/21 07:08:05;;;;;;;15.88;11.55;;;;;;;;;;5051879;28;20177;-80
2022/03/21 07:10:35;;;;;;;14.73;10.15;;;;;;;;;;5050756;28;20021;-78
2022/03/21 07:13:04;;;;;;;18.73;12.45;;;;;;;;;;5050635;28;20436;-78
2022/03/21 07:15:30;;;;;;;23.30;15.07;;;;;;;;;;5051242;28;20025;-78
2022/03/21 07:17:57;;;;;;;18.58;11.35;;;;;;;;;;5051242;28;20111;-79
2022/03/21 07:20:25;;;;;;;19.65;12.80;;;;;;;;;;5051084;28;20056;-77
2022/03/21 07:22:52;;;;;;;13.65;9.68;;;;;;;;;;5051030;28;20119;-79
2022/03/21 07:25:18;;;;;;;18.55;11.15;;;;;;;;;;5047313;28;20025;-78
2022/03/21 07:27:45;;;;;;;14.95;11.38;;;;;;;;;;5040376;28;20091;-80
2022/03/21 07:30:12;;;;;;;16.90;12.80;;;;;;;;;;5029714;28;20091;-79
2022/03/21 07:32:39;;;;;;;18.23;11.75;;;;;;;;;;5030949;28;20410;-78
2022/03/21 07:35:05;;;;;;;17.45;11.68;;;;;;;;;;5044355;28;20036;-77
2022/03/21 07:37:41;;;;;;;21.42;15.95;;;;;;;;;;5041882;28;20037;-77
2022/03/21 07:40:10;;;;;;;16.45;10.30;;;;;;;;;;5049875;28;20108;-76
2022/03/21 07:42:37;;;;;;;18.20;11.50;;;;;;;;;;5046616;28;20090;-78
2022/03/21 07:47:48;;;;;;;;;;;;;;;;;;5051305;28;20036;-78
2022/03/21 07:50:14;;;;;;;16.17;11.27;;;;;;;;;;5043901;28;20349;-79
2022/03/21 07:52:40;;;;;;;13.30;9.98;;;;;;;;;;5049658;28;20045;-78
2022/03/21 07:55:06;;;;;;;14.68;10.20;;;;;;;;;;5050717;28;20104;-77
2022/03/21 07:57:33;;;;;;;19.10;10.70;;;;;;;;;;5048856;28;20127;-76
2022/03/21 07:59:59;;;;;;;14.52;10.70;;;;;;;;;;5050261;28;20103;-76
2022/03/21 08:02:27;;;;;;;16.10;10.55;;;;;;;;;;5049782;28;20041;-76
2022/03/21 08:04:53;;;;;;;15.18;10.13;;;;;;;;;;5050207;28;20047;-78
2022/03/21 08:07:19;;;;;;;20.23;10.70;;;;;;;;;;5049928;28;20817;-79
2022/03/21 08:09:46;;;;;;;17.58;12.35;;;;;;;;;;5049095;28;20029;-79
2022/03/21 08:12:13;;;;;;;21.98;12.30;;;;;;;;;;5049694;28;20431;-78
2022/03/21 08:14:39;;;;;;;17.25;12.15;;;;;;;;;;5050132;28;20476;-78
2022/03/21 08:17:06;;;;;;;20.15;12.40;;;;;;;;;;5050572;28;20036;-79
2022/03/21 08:19:32;;;;;;;19.45;11.38;;;;;;;;;;5050487;28;20029;-78
2022/03/21 08:21:59;;;;;;;17.63;10.82;;;;;;;;;;5049777;28;20566;-79
2022/03/21 08:24:26;;;;;;;22.08;15.13;;;;;;;;;;5050489;28;20112;-77
2022/03/21 08:26:54;;;;;;;18.20;12.48;;;;;;;;;;5044838;28;20071;-78
2022/03/21 08:29:20;;;;;;;18.55;10.68;;;;;;;;;;5050317;28;20029;-79
2022/03/21 08:31:46;;;;;;;13.20;9.15;;;;;;;;;;5048230;28;20033;-78
2022/03/21 08:34:12;;;;;;;15.13;10.93;;;;;;;;;;5040319;28;20029;-77
2022/03/21 08:36:38;;;;;;;14.90;10.90;;;;;;;;;;5047722;28;20025;-76
2022/03/21 08:39:05;;;;;;;15.65;10.30;;;;;;;;;;5050455;28;20033;-76
2022/03/21 08:41:31;;;;;;;18.95;12.35;;;;;;;;;;5047475;28;20031;-79
2022/03/21 08:43:57;;;;;;;18.45;12.40;;;;;;;;;;5049414;28;20033;-78
2022/03/21 08:46:23;;;;;;;17.85;11.73;;;;;;;;;;5049762;28;20476;-77
2022/03/21 08:51:35;;;;;;;23.65;17.60;;;;;;;;;;5047927;28;20245;-81
2022/03/21 08:54:20;;;;;;;14.82;11.52;;;;;;;;;;5041352;28;20045;-79
2022/03/21 08:56:47;;;;;;;16.90;10.13;;;;;;;;;;5041702;28;20029;-77
2022/03/21 08:59:13;;;;;;;17.25;9.95;;;;;;;;;;5048669;28;20077;-76
2022/03/21 09:01:40;;;;;;;14.63;10.40;;;;;;;;;;5037579;28;20389;-77
2022/03/21 09:04:07;;;;;;;14.93;11.20;;;;;;;;;;5036495;28;20099;-81
2022/03/21 09:06:33;;;;;;;16.05;10.27;;;;;;;;;;5053761;28;20067;-77
2022/03/21 09:08:59;;;;;;;15.63;10.07;;;;;;;;;;5052558;28;20065;-77
2022/03/21 09:11:26;;;;;;;19.08;11.30;;;;;;;;;;5052533;28;20033;-77
2022/03/21 09:13:52;;;;;;;16.65;10.40;;;;;;;;;;5053343;28;20029;-77
2022/03/21 09:16:19;;;;;;;14.07;8.93;;;;;;;;;;5051272;28;20468;-76
2022/03/21 09:18:48;;;;;;;15.05;9.98;;;;;;;;;;5052837;28;20069;-76
2022/03/21 09:21:14;;;;;;;15.10;10.20;;;;;;;;;;5033689;28;20048;-78
2022/03/21 09:23:41;;;;;;;16.55;10.05;;;;;;;;;;5033720;28;20436;-76
2022/03/21 09:26:11;;;;;;;21.58;13.38;;;;;;;;;;5033775;28;20028;-75
2022/03/21 09:28:43;;;;;;;17.33;11.40;;;;;;;;;;5033588;28;20036;-77
2022/03/21 09:31:09;;;;;;;14.20;10.38;;;;;;;;;;5052213;28;20479;-76
2022/03/21 09:33:37;;;;;;;24.48;15.05;;;;;;;;;;5052243;28;20029;-77
2022/03/21 09:36:06;;;;;;;15.90;11.90;;;;;;;;;;5051895;28;20047;-76
2022/03/21 09:38:32;;;;;;;13.27;10.73;;;;;;;;;;5053045;28;20492;-76
2022/03/21 09:41:00;;;;;;;15.35;10.98;;;;;;;;;;5050915;28;20037;-78
2022/03/21 09:43:26;;;;;;;18.85;12.00;;;;;;;;;;5053030;28;20048;-78
2022/03/21 09:45:56;;;;;;;19.55;14.32;;;;;;;;;;5052165;28;20029;-80
2022/03/21 09:48:23;;;;;;;13.55;9.63;;;;;;;;;;5053674;28;20025;-79
2022/03/21 09:50:52;;;;;;;15.95;9.68;;;;;;;;;;5048860;28;20040;-80
2022/03/21 09:53:19;;;;;;;14.50;9.45;;;;;;;;;;5052986;28;20049;-78
2022/03/21 09:55:46;;;;;;;14.85;9.52;;;;;;;;;;5052680;28;20021;-79
2022/03/21 09:58:14;;;;;;;14.25;9.70;;;;;;;;;;5052137;28;20418;-79
2022/03/21 10:00:41;;;;;;;12.13;9.02;;;;;;;;;;5050748;28;20061;-78
2022/03/21 10:03:08;;;;;;;12.27;8.63;;;;;;;;;;5052566;28;20118;-78
2022/03/21 10:05:52;;;;;;;12.63;8.95;;;;;;;;;;5053115;28;20515;-79
2022/03/21 10:08:27;;;;;;;20.65;12.85;;;;;;;;;;5051694;28;20029;-78
2022/03/21 10:11:01;;;;;;;13.90;10.02;;;;;;;;;;5042430;28;20399;-76
2022/03/21 10:13:37;;;;;;;19.00;12.77;;;;;;;;;;5044151;28;20033;-77
2022/03/21 10:16:06;;;;;;;24.52;16.20;;;;;;;;;;5051767;28;20029;-79
2022/03/21 10:18:32;;;;;;;13.23;9.50;;;;;;;;;;5052341;28;20064;-77
2022/03/21 10:21:09;;;;;;;11.57;8.13;;;;;;;;;;5052013;28;20028;-77
2022/03/21 10:23:35;;;;;;;13.65;9.30;;;;;;;;;;5045300;28;20400;-77
2022/03/21 10:26:01;;;;;;;13.18;9.32;;;;;;;;;;5052227;28;20384;-81
2022/03/21 10:28:44;;;;;;;15.18;9.88;;;;;;;;;;5050846;28;20076;-76
2022/03/21 10:31:10;;;;;;;11.00;8.07;;;;;;;;;;5049370;28;20036;-78
2022/03/21 10:33:36;;;;;;;11.75;8.57;;;;;;;;;;5052098;28;20078;-78
2022/03/21 10:36:12;;;;;;;10.65;8.70;;;;;;;;;;5051528;28;20163;-79
2022/03/21 10:38:39;;;;;;;12.63;8.85;;;;;;;;;;5050718;28;20423;-78
2022/03/21 10:41:06;;;;;;;11.52;8.55;;;;;;;;;;5051816;28;20072;-82
2022/03/21 10:43:33;;;;;;;10.57;8.15;;;;;;;;;;5051143;28;20463;-78
2022/03/21 10:45:59;;;;;;;15.55;10.50;;;;;;;;;;5050865;28;20067;-76
2022/03/21 10:48:27;;;;;;;11.15;8.68;;;;;;;;;;5045686;28;20060;-79
2022/03/21 10:50:54;;;;;;;12.18;9.02;;;;;;;;;;5046551;28;20029;-78
2022/03/21 10:53:20;;;;;;;12.13;8.30;;;;;;;;;;5050896;28;20053;-80
2022/03/21 10:55:50;;;;;;;12.52;8.52;;;;;;;;;;5048743;28;20087;-80
2022/03/21 10:58:17;;;;;;;12.38;8.20;;;;;;;;;;5045698;28;20488;-75
2022/03/21 11:00:44;;;;;;;12.32;9.07;;;;;;;;;;5038037;28;20087;-79
2022/03/21 11:03:15;;;;;;;18.13;10.10;;;;;;;;;;5049937;28;20373;-77
2022/03/21 11:06:00;;;;;;;11.55;8.07;;;;;;;;;;5048510;28;20024;-75
2022/03/21 11:08:26;;;;;;;10.73;8.50;;;;;;;;;;5048259;28;20028;-77
2022/03/21 11:10:53;;;;;;;11.93;8.35;;;;;;;;;;5051572;28;20040;-79
2022/03/21 11:13:20;;;;;;;13.82;9.88;;;;;;;;;;5049825;28;20036;-78
2022/03/21 11:15:48;;;;;;;13.07;9.05;;;;;;;;;;5050535;28;20064;-77
2022/03/21 11:18:14;;;;;;;12.88;9.45;;;;;;;;;;5049467;28;20052;-76
2022/03/21 11:20:44;;;;;;;12.45;7.93;;;;;;;;;;5049783;28;20029;-78
2022/03/21 11:23:21;;;;;;;13.48;8.15;;;;;;;;;;5050132;28;20037;-76
2022/03/21 11:25:51;;;;;;;10.55;7.85;;;;;;;;;;5029264;28;20037;-78
2022/03/21 11:28:21;;;;;;;11.18;8.13;;;;;;;;;;5035332;28;20033;-78
2022/03/21 11:30:50;;;;;;;13.98;9.90;;;;;;;;;;5045045;28;20056;-76
2022/03/21 11:33:16;;;;;;;14.07;9.77;;;;;;;;;;5036748;28;20112;-75
2022/03/21 11:35:49;;;;;;;12.15;8.68;;;;;;;;;;5049277;28;20205;-76
2022/03/21 11:38:25;;;;;;;11.70;8.75;;;;;;;;;;5048367;28;20033;-77
2022/03/21 11:40:52;;;;;;;17.40;12.32;;;;;;;;;;5047096;28;20072;-76
2022/03/21 11:43:18;;;;;;;14.38;8.43;;;;;;;;;;5049355;28;20040;-76
2022/03/21 11:45:55;;;;;;;16.10;9.15;;;;;;;;;;5049187;28;20495;-75
2022/03/21 11:48:29;;;;;;;14.25;9.52;;;;;;;;;;5049192;28;20033;-76
2022/03/21 11:50:56;;;;;;;14.73;10.23;;;;;;;;;;5047778;28;20037;-76
2022/03/21 11:56:34;;;;;;;11.27;7.97;;;;;;;;;;5048626;28;20372;-75
2022/03/21 11:59:00;;;;;;;17.13;10.63;;;;;;;;;;5049789;28;20036;-77
2022/03/21 12:01:28;;;;;;;14.65;10.05;;;;;;;;;;5049156;28;20060;-78
2022/03/21 12:03:54;;;;;;;12.18;6.47;;;;;;;;;;5038806;28;20045;-78
2022/03/21 12:06:23;;;;;;;28.05;10.75;;;;;;;;;;5048359;28;20036;-77
2022/03/21 12:08:58;;;;;;;14.82;9.88;;;;;;;;;;5050014;28;20060;-76
2022/03/21 12:11:48;;;;;;;16.58;10.65;;;;;;;;;;5049356;28;20112;-77
2022/03/21 12:14:24;;;;;;;14.20;9.95;;;;;;;;;;5049917;28;20037;-77
2022/03/21 12:17:08;;;;;;;10.27;7.90;;;;;;;;;;5049921;28;20083;-77
2022/03/21 12:20:02;;;;;;;16.52;13.05;;;;;;;;;;5048260;28;20498;-77
2022/03/21 12:22:28;;;;;;;19.83;13.10;;;;;;;;;;5048823;28;20040;-79
2022/03/21 12:25:13;;;;;;;12.93;10.15;;;;;;;;;;5043142;28;20055;-77
2022/03/21 12:27:48;;;;;;;18.33;13.05;;;;;;;;;;5049656;28;20125;-77
2022/03/21 12:30:21;;;;;;;21.20;14.13;;;;;;;;;;5050013;28;20033;-77
2022/03/21 12:32:47;;;;;;;22.33;12.20;;;;;;;;;;5049995;28;20125;-77
2022/03/21 12:38:21;;;;;;;25.67;14.87;;;;;;;;;;5049924;28;20452;-77
2022/03/21 12:40:50;;;;;;;21.08;14.93;;;;;;;;;;5053389;28;20037;-72
2022/03/21 12:43:20;;;;;;;12.65;8.00;;;;;;;;;;5054179;28;20048;-76
2022/03/21 12:45:49;;;;;;;14.10;8.15;;;;;;;;;;5054634;28;20029;-76
2022/03/21 12:48:17;;;;;;;16.83;11.05;;;;;;;;;;5054748;28;20037;-76
2022/03/21 12:50:46;;;;;;;16.52;11.23;;;;;;;;;;5053309;28;20037;-76
2022/03/21 12:53:15;;;;;;;18.27;9.18;;;;;;;;;;5054823;28;20481;-77
2022/03/21 12:55:41;;;;;;;16.92;11.02;;;;;;;;;;5049253;28;20031;-77
2022/03/21 12:58:12;;;;;;;20.95;12.38;;;;;;;;;;5051945;28;20025;-76
2022/03/21 13:00:40;;;;;;;13.88;10.45;;;;;;;;;;5047320;28;20032;-77
2022/03/21 13:03:13;;;;;;;15.98;10.57;;;;;;;;;;5045697;28;20033;-77
2022/03/21 13:11:20;;;;;;;21.08;13.85;;;;;;;;;;5046917;28;20067;-78
2022/03/21 13:13:53;;;;;;;21.33;13.68;;;;;;;;;;5047176;28;20029;-77
2022/03/21 13:16:19;;;;;;;11.55;8.85;;;;;;;;;;5043490;28;20079;-74
2022/03/21 13:18:45;;;;;;;13.90;10.35;;;;;;;;;;5044073;28;20033;-76
2022/03/21 13:21:11;;;;;;;12.52;8.55;;;;;;;;;;5044910;28;20041;-77
2022/03/21 13:23:37;;;;;;;18.38;12.40;;;;;;;;;;5045695;28;20037;-76
2022/03/21 13:26:22;;;;;;;16.88;10.20;;;;;;;;;;5053591;28;20025;-76
2022/03/21 13:28:48;;;;;;;;;;;;;;;;;;5053661;28;20028;-78
2022/03/21 13:31:33;;;;;;;12.23;8.93;;;;;;;;;;5053625;28;19915;-77
2022/03/21 13:34:03;;;;;;;11.48;8.32;;;;;;;;;;5051634;28;20036;-78
2022/03/21 13:36:29;;;;;;;9.85;8.00;;;;;;;;;;5051029;28;20520;-77
2022/03/21 13:39:19;;;;;;;16.70;12.40;;;;;;;;;;5051945;28;20038;-75
2022/03/21 13:42:04;;;;;;;14.63;10.10;;;;;;;;;;5051976;28;20025;-74
2022/03/21 13:44:49;;;;;;;13.93;8.95;;;;;;;;;;5050850;28;20068;-76
2022/03/21 13:47:15;;;;;;;12.18;8.50;;;;;;;;;;5052225;28;20024;-81
2022/03/21 13:50:00;;;;;;;12.23;8.45;;;;;;;;;;5052158;28;20104;-77
2022/03/21 13:52:26;;;;;;;;;;;;;;;;;;5048527;28;20063;-75
2022/03/21 13:54:54;;;;;;;15.55;10.63;;;;;;;;;;5051924;28;19908;-75
2022/03/21 13:57:21;;;;;;;11.27;7.70;;;;;;;;;;5050313;28;20033;-75
2022/03/21 14:00:07;;;;;;;17.30;10.35;;;;;;;;;;5050555;28;20025;-75
2022/03/21 14:02:43;;;;;;;14.30;9.80;;;;;;;;;;5048208;28;20670;-77
2022/03/21 14:05:13;;;;;;;11.55;8.10;;;;;;;;;;5051418;28;20484;-75
2022/03/21 14:07:40;;;;;;;12.35;9.57;;;;;;;;;;5051910;28;20029;-77
2022/03/21 14:10:13;;;;;;;17.55;10.52;;;;;;;;;;5052417;28;20025;-75
2022/03/21 14:12:41;;;;;;;12.65;8.45;;;;;;;;;;5051919;28;20026;-76
2022/03/21 14:15:07;;;;;;;15.05;8.93;;;;;;;;;;5049796;28;20029;-77
2022/03/21 14:17:33;;;;;;;14.40;10.43;;;;;;;;;;5036787;28;20079;-77
2022/03/21 14:19:59;;;;;;;15.70;10.05;;;;;;;;;;5042436;28;20094;-77
2022/03/21 14:22:25;;;;;;;13.82;8.30;;;;;;;;;;5053195;28;20036;-73
2022/03/21 14:24:51;;;;;;;11.90;8.82;;;;;;;;;;5053217;28;20086;-76
2022/03/21 14:27:17;;;;;;;18.70;11.35;;;;;;;;;;5052996;28;20159;-75
2022/03/21 14:29:43;;;;;;;18.60;12.40;;;;;;;;;;5052979;28;20025;-75
2022/03/21 14:32:10;;;;;;;22.95;12.95;;;;;;;;;;5053154;28;20400;-76
2022/03/21 14:34:36;;;;;;;16.83;11.50;;;;;;;;;;5052642;28;20422;-74
2022/03/21 14:37:02;;;;;;;22.20;13.07;;;;;;;;;;5053139;28;20039;-75
2022/03/21 14:39:28;;;;;;;19.75;12.35;;;;;;;;;;5053498;28;20033;-76
2022/03/21 14:41:54;;;;;;;23.90;15.63;;;;;;;;;;5033454;28;20380;-76
2022/03/21 14:44:22;;;;;;;14.85;10.20;;;;;;;;;;5036464;28;20086;-76
2022/03/21 14:46:48;;;;;;;17.50;11.80;;;;;;;;;;5052339;28;20047;-75
2022/03/21 14:49:15;;;;;;;15.30;9.73;;;;;;;;;;5051938;28;20033;-78
2022/03/21 14:51:41;;;;;;;20.77;11.90;;;;;;;;;;5051485;28;20032;-77
2022/03/21 14:54:07;;;;;;;15.05;10.90;;;;;;;;;;5052283;28;20053;-77
2022/03/21 14:56:34;;;;;;;23.20;13.35;;;;;;;;;;5052286;28;20029;-77
2022/03/21 14:59:00;;;;;;;34.65;20.67;;;;;;;;;;5052251;28;20029;-77
2022/03/21 15:01:26;;;;;;;20.67;12.10;;;;;;;;;;5051468;28;20028;-76
2022/03/21 15:03:53;;;;;;;13.23;9.02;;;;;;;;;;5052146;28;20045;-75
2022/03/21 15:06:19;;;;;;;16.98;12.60;;;;;;;;;;5052708;28;20036;-77